Time;durP1;ratioP1;P1;durP2;ratioP2;P2;SDS_P1;SDS_P2;PMS_P1;PMS_P2;Temp;Humidity;BMP_temperature;BMP_pressure;BME280_temperature;BME280_humidity;BME280_pressure;Samples;Min_cycle;Max_cycle;Signal;HPM_P1;HPM_P2
2023/12/26 00:01:48;;;;;;;2.92;1.73;;;;;;;;;;5057371;28;20039;-83
2023/12/26 00:04:32;;;;;;;5.68;1.90;;;;;;;;;;5044613;28;20125;-83
2023/12/26 00:07:18;;;;;;;5.05;1.90;;;;;;;;;;5056611;28;20499;-83
2023/12/26 00:10:02;;;;;;;3.95;1.70;;;;;;;;;;5056956;28;20059;-83
2023/12/26 00:12:47;;;;;;;4.32;2.22;;;;;;;;;;5071223;28;20373;-83
2023/12/26 00:15:32;;;;;;;4.22;2.20;;;;;;;;;;5056719;28;20549;-83
2023/12/26 00:18:17;;;;;;;5.93;2.40;;;;;;;;;;5071130;28;20040;-83
2023/12/26 00:21:02;;;;;;;5.10;2.15;;;;;;;;;;5065879;28;20124;-83
2023/12/26 00:23:46;;;;;;;5.03;2.03;;;;;;;;;;5075636;28;20042;-83
2023/12/26 00:26:31;;;;;;;4.82;1.67;;;;;;;;;;5086417;28;20100;-83
2023/12/26 00:29:16;;;;;;;5.20;2.05;;;;;;;;;;5076000;28;20085;-83
2023/12/26 00:32:00;;;;;;;3.42;2.03;;;;;;;;;;5072723;28;20031;-84
2023/12/26 00:34:45;;;;;;;6.38;2.28;;;;;;;;;;5057413;28;20040;-84
2023/12/26 00:37:31;;;;;;;5.28;2.50;;;;;;;;;;5087857;28;20120;-84
2023/12/26 00:40:16;;;;;;;3.38;2.10;;;;;;;;;;5062100;28;20058;-84
2023/12/26 00:43:01;;;;;;;5.28;2.50;;;;;;;;;;5091172;28;20093;-84
2023/12/26 00:45:46;;;;;;;6.35;2.53;;;;;;;;;;5076465;28;20507;-84
2023/12/26 00:48:30;;;;;;;5.40;2.22;;;;;;;;;;5079896;28;20050;-84
2023/12/26 00:51:16;;;;;;;5.13;1.95;;;;;;;;;;5075719;28;20042;-84
2023/12/26 00:54:00;;;;;;;3.20;1.80;;;;;;;;;;5061555;28;20396;-84
2023/12/26 00:57:03;;;;;;;2.55;1.67;;;;;;;;;;5066385;28;20085;-84
2023/12/26 00:59:48;;;;;;;5.18;2.00;;;;;;;;;;5064904;28;20039;-84
2023/12/26 01:02:33;;;;;;;6.80;2.10;;;;;;;;;;5061432;28;20566;-84
2023/12/26 01:05:18;;;;;;;5.32;1.70;;;;;;;;;;5061266;28;20093;-85
2023/12/26 01:08:04;;;;;;;4.15;2.33;;;;;;;;;;5070187;28;20075;-84
2023/12/26 01:10:51;;;;;;;3.75;1.70;;;;;;;;;;5091685;28;20079;-84
2023/12/26 01:13:36;;;;;;;3.10;1.40;;;;;;;;;;5082693;28;20063;-84
2023/12/26 01:16:25;;;;;;;3.78;1.30;;;;;;;;;;5072575;28;20040;-84
2023/12/26 01:19:12;;;;;;;2.67;1.02;;;;;;;;;;5084713;28;20411;-85
2023/12/26 01:21:57;;;;;;;3.55;1.20;;;;;;;;;;5059559;28;20064;-84
2023/12/26 01:24:51;;;;;;;4.63;1.00;;;;;;;;;;5060062;28;20510;-84
2023/12/26 01:27:37;;;;;;;3.38;1.20;;;;;;;;;;5085015;28;20077;-84
2023/12/26 01:30:43;;;;;;;3.35;1.10;;;;;;;;;;5083868;28;20396;-84
2023/12/26 01:33:30;;;;;;;4.03;1.15;;;;;;;;;;5079014;28;20062;-84
2023/12/26 01:36:25;;;;;;;6.03;1.20;;;;;;;;;;5071838;28;20101;-86
2023/12/26 01:39:13;;;;;;;7.07;1.27;;;;;;;;;;5062512;28;20127;-84
2023/12/26 01:41:58;;;;;;;3.97;1.05;;;;;;;;;;5090983;28;20473;-84
2023/12/26 01:44:47;;;;;;;9.32;1.48;;;;;;;;;;5081750;28;20067;-84
2023/12/26 01:47:41;;;;;;;6.88;2.25;;;;;;;;;;5063963;28;20439;-84
2023/12/26 01:50:37;;;;;;;8.10;1.63;;;;;;;;;;5074552;28;20055;-84
2023/12/26 01:53:23;;;;;;;8.20;1.65;;;;;;;;;;5090191;28;20038;-85
2023/12/26 01:56:50;;;;;;;6.60;1.30;;;;;;;;;;5091060;28;20069;-83
2023/12/26 02:00:14;;;;;;;18.88;2.45;;;;;;;;;;5077922;28;20035;-84
2023/12/26 02:03:07;;;;;;;5.97;1.63;;;;;;;;;;5088188;28;20090;-84
2023/12/26 02:05:55;;;;;;;14.15;2.47;;;;;;;;;;5090968;28;20450;-84
2023/12/26 02:08:42;;;;;;;12.20;2.03;;;;;;;;;;5090037;28;20122;-85
2023/12/26 02:11:37;;;;;;;12.63;2.17;;;;;;;;;;5090085;28;20065;-83
2023/12/26 02:15:02;;;;;;;14.55;2.28;;;;;;;;;;5075049;28;20081;-86
2023/12/26 02:17:48;;;;;;;6.10;1.77;;;;;;;;;;5078436;28;20043;-83
2023/12/26 02:20:56;;;;;;;12.18;2.45;;;;;;;;;;5075285;28;20530;-85
2023/12/26 02:23:42;;;;;;;13.30;2.10;;;;;;;;;;5072607;28;20056;-83
2023/12/26 02:26:47;;;;;;;11.07;1.83;;;;;;;;;;5074669;28;20408;-84
2023/12/26 02:30:00;;;;;;;11.43;2.03;;;;;;;;;;5090895;28;20089;-84
2023/12/26 02:32:49;;;;;;;14.80;2.42;;;;;;;;;;5089067;28;20081;-83
2023/12/26 02:35:41;;;;;;;10.60;1.67;;;;;;;;;;5049514;28;20088;-84
2023/12/26 02:38:26;;;;;;;15.82;2.00;;;;;;;;;;5090054;28;20071;-87
2023/12/26 02:41:42;;;;;;;13.02;1.80;;;;;;;;;;5078263;28;20035;-83
2023/12/26 02:44:45;;;;;;;19.45;2.30;;;;;;;;;;5078321;28;20404;-86
2023/12/26 02:47:53;;;;;;;7.95;1.42;;;;;;;;;;5092920;28;20054;-84
2023/12/26 02:50:48;;;;;;;11.52;4.05;;;;;;;;;;5093238;28;20083;-83
2023/12/26 02:53:52;;;;;;;15.32;2.50;;;;;;;;;;5075764;28;20051;-83
2023/12/26 02:56:46;;;;;;;17.67;2.33;;;;;;;;;;5082469;28;20043;-83
2023/12/26 02:59:31;;;;;;;6.93;1.60;;;;;;;;;;5093375;28;20510;-85
2023/12/26 03:02:28;;;;;;;11.05;1.95;;;;;;;;;;5093503;28;20450;-84
2023/12/26 03:05:32;;;;;;;11.60;1.90;;;;;;;;;;5093380;28;20089;-83
2023/12/26 03:11:30;;;;;;;11.55;2.15;;;;;;;;;;5084847;28;20124;-84
2023/12/26 03:14:40;;;;;;;17.73;2.45;;;;;;;;;;5060274;28;20100;-83
2023/12/26 03:17:30;;;;;;;11.55;1.60;;;;;;;;;;5049804;28;20055;-83
2023/12/26 03:20:27;;;;;;;12.23;1.75;;;;;;;;;;5093138;28;20104;-83
2023/12/26 03:23:19;;;;;;;9.13;2.40;;;;;;;;;;5076363;28;20104;-84
2023/12/26 03:26:10;;;;;;;10.32;2.10;;;;;;;;;;5077180;28;20393;-83
2023/12/26 03:29:09;;;;;;;9.30;1.70;;;;;;;;;;5081200;28;20031;-83
2023/12/26 03:38:15;;;;;;;9.40;1.52;;;;;;;;;;5078988;28;20062;-84
2023/12/26 03:41:02;;;;;;;8.18;1.67;;;;;;;;;;5065066;28;20648;-84
2023/12/26 03:44:04;;;;;;;15.43;2.83;;;;;;;;;;5092931;28;20511;-83
2023/12/26 03:47:13;;;;;;;13.52;2.03;;;;;;;;;;5051585;28;20412;-83
2023/12/26 03:50:00;;;;;;;12.30;2.03;;;;;;;;;;5091812;28;20042;-82
2023/12/26 03:56:09;;;;;;;12.95;1.83;;;;;;;;;;5092545;28;20031;-83
2023/12/26 03:58:54;;;;;;;12.63;2.03;;;;;;;;;;5091546;28;20084;-83
2023/12/26 04:01:46;;;;;;;12.95;1.77;;;;;;;;;;5077359;28;20035;-83
2023/12/26 04:04:31;;;;;;;9.75;2.60;;;;;;;;;;5092423;28;20085;-83
2023/12/26 04:07:26;;;;;;;8.85;2.00;;;;;;;;;;5091634;28;20605;-83
2023/12/26 04:10:20;;;;;;;17.52;2.55;;;;;;;;;;5087535;28;20043;-84
2023/12/26 04:13:18;;;;;;;6.57;1.63;;;;;;;;;;5070352;28;20047;-83
2023/12/26 04:16:15;;;;;;;11.90;1.65;;;;;;;;;;5065963;28;20043;-82
2023/12/26 04:19:00;;;;;;;12.77;1.88;;;;;;;;;;5063273;28;20122;-83
2023/12/26 04:21:53;;;;;;;11.73;1.80;;;;;;;;;;5047349;28;20404;-83
2023/12/26 04:24:39;;;;;;;11.68;2.28;;;;;;;;;;5078185;28;20171;-84
2023/12/26 04:27:25;;;;;;;11.15;1.90;;;;;;;;;;5046390;28;20044;-83
2023/12/26 04:30:20;;;;;;;15.43;2.05;;;;;;;;;;5066327;28;20063;-83
2023/12/26 04:33:07;;;;;;;12.45;2.30;;;;;;;;;;5056015;28;20060;-83
2023/12/26 04:36:12;;;;;;;12.23;2.15;;;;;;;;;;5066995;28;20500;-83
2023/12/26 04:39:07;;;;;;;11.75;2.03;;;;;;;;;;5055545;28;20051;-83
2023/12/26 04:41:56;;;;;;;21.15;2.55;;;;;;;;;;5059107;28;20447;-83
2023/12/26 04:45:02;;;;;;;14.88;2.83;;;;;;;;;;5058305;28;20120;-83
2023/12/26 04:48:08;;;;;;;14.95;2.35;;;;;;;;;;5055590;28;20063;-83
2023/12/26 04:50:53;;;;;;;14.05;2.05;;;;;;;;;;5055026;28;20127;-84
2023/12/26 04:53:40;;;;;;;12.57;2.08;;;;;;;;;;5056806;28;20499;-83
2023/12/26 04:56:44;;;;;;;23.23;2.53;;;;;;;;;;5044443;28;20162;-84
2023/12/26 04:59:49;;;;;;;14.87;2.60;;;;;;;;;;5071497;28;20036;-84
2023/12/26 05:02:39;;;;;;;9.75;1.80;;;;;;;;;;5070469;28;20062;-83
2023/12/26 05:05:25;;;;;;;12.48;2.05;;;;;;;;;;5055755;28;20059;-84
2023/12/26 05:08:26;;;;;;;18.38;2.55;;;;;;;;;;5071584;28;20043;-83
2023/12/26 05:14:39;;;;;;;12.15;2.05;;;;;;;;;;5071088;28;20117;-84
2023/12/26 05:17:23;;;;;;;11.57;2.00;;;;;;;;;;5055734;28;20047;-84
2023/12/26 05:20:14;;;;;;;9.38;2.40;;;;;;;;;;5070277;28;20032;-83
2023/12/26 05:23:04;;;;;;;16.17;3.53;;;;;;;;;;5070348;28;20074;-84
2023/12/26 05:25:54;;;;;;;8.18;2.90;;;;;;;;;;5056010;28;20094;-84
2023/12/26 05:29:00;;;;;;;12.13;2.50;;;;;;;;;;5056315;28;20082;-84
2023/12/26 05:32:12;;;;;;;17.83;3.08;;;;;;;;;;5070999;28;20031;-84
2023/12/26 05:35:07;;;;;;;7.60;1.85;;;;;;;;;;5053519;28;20054;-84
2023/12/26 05:38:52;;;;;;;14.75;3.38;;;;;;;;;;5069836;28;20035;-84
2023/12/26 05:41:43;;;;;;;10.52;2.22;;;;;;;;;;5065328;28;20090;-84
2023/12/26 05:44:31;;;;;;;12.80;2.45;;;;;;;;;;5066139;28;20443;-83
2023/12/26 05:47:21;;;;;;;19.20;2.35;;;;;;;;;;5070871;28;20060;-84
2023/12/26 05:50:16;;;;;;;13.40;1.65;;;;;;;;;;5050773;28;20036;-84
2023/12/26 05:53:11;;;;;;;10.23;2.78;;;;;;;;;;5057863;28;20040;-84
2023/12/26 05:55:58;;;;;;;16.15;2.67;;;;;;;;;;5055099;28;20038;-84
2023/12/26 05:58:48;;;;;;;14.52;2.75;;;;;;;;;;5070824;28;20120;-84
2023/12/26 06:02:01;;;;;;;14.05;2.22;;;;;;;;;;5058146;28;20123;-84
2023/12/26 06:04:54;;;;;;;12.10;2.58;;;;;;;;;;5060293;28;20048;-84
2023/12/26 06:07:43;;;;;;;8.23;1.50;;;;;;;;;;5070176;28;20549;-85
2023/12/26 06:10:32;;;;;;;11.50;1.77;;;;;;;;;;5056350;28;20063;-84
2023/12/26 06:13:18;;;;;;;12.52;2.17;;;;;;;;;;5055885;28;20048;-85
2023/12/26 06:16:15;;;;;;;10.93;1.95;;;;;;;;;;5049293;28;20043;-84
2023/12/26 06:19:09;;;;;;;9.88;2.00;;;;;;;;;;5054667;28;20511;-84
2023/12/26 06:21:55;;;;;;;12.57;2.78;;;;;;;;;;5074252;28;20036;-84
2023/12/26 06:24:59;;;;;;;9.95;2.17;;;;;;;;;;5073663;28;20078;-84
2023/12/26 06:28:18;;;;;;;11.18;2.30;;;;;;;;;;5066387;28;20090;-84
2023/12/26 06:31:03;;;;;;;11.15;1.85;;;;;;;;;;5060141;28;20086;-84
2023/12/26 06:33:48;;;;;;;16.90;2.17;;;;;;;;;;5063197;28;20031;-88
2023/12/26 06:36:33;;;;;;;10.40;2.13;;;;;;;;;;5072949;28;20051;-86
2023/12/26 06:39:26;;;;;;;12.68;1.90;;;;;;;;;;5057489;28;20038;-84
2023/12/26 06:42:31;;;;;;;17.35;2.20;;;;;;;;;;5066063;28;20047;-82
2023/12/26 06:45:18;;;;;;;13.75;1.83;;;;;;;;;;5063611;28;20040;-85
2023/12/26 06:48:03;;;;;;;16.85;2.85;;;;;;;;;;5044204;28;20066;-85
2023/12/26 06:50:51;;;;;;;21.27;2.50;;;;;;;;;;5067287;28;20392;-85
2023/12/26 06:53:36;;;;;;;8.05;2.05;;;;;;;;;;5052685;28;20094;-85
2023/12/26 06:56:21;;;;;;;8.93;2.53;;;;;;;;;;5051456;28;20460;-85
2023/12/26 06:59:05;;;;;;;11.13;2.22;;;;;;;;;;5038306;28;20495;-87
2023/12/26 07:01:50;;;;;;;15.02;2.50;;;;;;;;;;5073159;28;20400;-86
2023/12/26 07:04:34;;;;;;;16.63;2.53;;;;;;;;;;5037467;28;20118;-85
2023/12/26 07:07:20;;;;;;;11.88;2.88;;;;;;;;;;5069436;28;20032;-85
2023/12/26 07:10:06;;;;;;;14.45;2.75;;;;;;;;;;5050728;28;20116;-86
2023/12/26 07:12:51;;;;;;;13.25;2.90;;;;;;;;;;5052478;28;20044;-85
2023/12/26 07:15:35;;;;;;;10.95;2.72;;;;;;;;;;5044205;28;20416;-85
2023/12/26 07:18:20;;;;;;;14.18;2.42;;;;;;;;;;5057141;28;20039;-85
2023/12/26 07:21:04;;;;;;;12.35;3.00;;;;;;;;;;5058105;28;20169;-85
2023/12/26 07:23:51;;;;;;;20.23;3.63;;;;;;;;;;5050656;28;20127;-85
2023/12/26 07:26:36;;;;;;;11.70;2.20;;;;;;;;;;5072735;28;20050;-86
2023/12/26 07:29:28;;;;;;;19.83;2.83;;;;;;;;;;5076584;28;20093;-84
2023/12/26 07:32:13;;;;;;;20.65;3.42;;;;;;;;;;5086551;28;20081;-89
2023/12/26 07:34:58;;;;;;;20.00;2.72;;;;;;;;;;5073937;28;20579;-87
2023/12/26 07:37:42;;;;;;;10.30;1.90;;;;;;;;;;5078385;28;20119;-87
2023/12/26 07:40:27;;;;;;;12.32;2.25;;;;;;;;;;5090688;28;20123;-88
2023/12/26 07:43:12;;;;;;;13.65;1.90;;;;;;;;;;5076876;28;20043;-87
2023/12/26 07:45:58;;;;;;;15.30;2.40;;;;;;;;;;5076826;28;20521;-86
2023/12/26 07:48:43;;;;;;;8.88;2.03;;;;;;;;;;5077806;28;20039;-86
2023/12/26 07:51:27;;;;;;;13.90;2.67;;;;;;;;;;5062538;28;20051;-87
2023/12/26 07:54:12;;;;;;;21.23;2.35;;;;;;;;;;5092007;28;20503;-88
2023/12/26 07:56:57;;;;;;;16.65;2.85;;;;;;;;;;5060650;28;20392;-86
2023/12/26 07:59:42;;;;;;;14.05;2.60;;;;;;;;;;5073024;28;20043;-87
2023/12/26 08:02:27;;;;;;;14.63;2.65;;;;;;;;;;5090411;28;20035;-86
2023/12/26 08:05:12;;;;;;;20.15;3.28;;;;;;;;;;5092619;28;20506;-85
2023/12/26 08:07:56;;;;;;;14.15;2.25;;;;;;;;;;5081760;28;20093;-89
2023/12/26 08:10:47;;;;;;;17.17;2.92;;;;;;;;;;5088943;28;20039;-87
2023/12/26 08:13:31;;;;;;;11.38;2.45;;;;;;;;;;5055528;28;20120;-84
2023/12/26 08:16:16;;;;;;;12.90;2.88;;;;;;;;;;5076441;28;20456;-92
2023/12/26 08:19:02;;;;;;;13.82;3.45;;;;;;;;;;5076862;28;20039;-86
2023/12/26 08:21:47;;;;;;;22.00;2.85;;;;;;;;;;5076698;28;20039;-84
2023/12/26 08:24:31;;;;;;;6.93;2.05;;;;;;;;;;5079204;28;20078;-86
2023/12/26 08:27:16;;;;;;;13.85;2.35;;;;;;;;;;5063965;28;20043;-85
2023/12/26 08:30:01;;;;;;;17.17;3.22;;;;;;;;;;5057909;28;20093;-85
2023/12/26 08:32:45;;;;;;;13.45;2.42;;;;;;;;;;5053773;28;20043;-87
2023/12/26 08:35:31;;;;;;;15.20;4.35;;;;;;;;;;5049184;28;20047;-88
2023/12/26 08:38:16;;;;;;;15.48;2.42;;;;;;;;;;5066623;28;20120;-88
2023/12/26 08:41:00;;;;;;;16.23;3.17;;;;;;;;;;5042860;28;20058;-88
2023/12/26 08:43:44;;;;;;;12.23;2.60;;;;;;;;;;5039941;28;20589;-88
2023/12/26 08:46:29;;;;;;;15.23;2.47;;;;;;;;;;5066345;28;20055;-88
2023/12/26 08:49:13;;;;;;;16.85;2.90;;;;;;;;;;5058244;28;20085;-86
2023/12/26 08:52:00;;;;;;;19.27;2.60;;;;;;;;;;5062049;28;20085;-86
2023/12/26 08:54:44;;;;;;;14.00;3.58;;;;;;;;;;5041087;28;20405;-87
2023/12/26 08:57:29;;;;;;;12.82;2.85;;;;;;;;;;5041724;28;21471;-86
2023/12/26 09:00:14;;;;;;;22.17;4.20;;;;;;;;;;5042297;28;20047;-86
2023/12/26 09:03:00;;;;;;;11.00;2.50;;;;;;;;;;5044251;28;20043;-85
2023/12/26 09:05:46;;;;;;;14.77;2.47;;;;;;;;;;5070550;28;20036;-86
2023/12/26 09:08:31;;;;;;;14.05;2.60;;;;;;;;;;5050978;28;20078;-87
2023/12/26 09:11:16;;;;;;;14.80;2.55;;;;;;;;;;5042171;28;20492;-86
2023/12/26 09:14:00;;;;;;;17.73;2.95;;;;;;;;;;5064836;28;20491;-86
2023/12/26 09:16:45;;;;;;;16.83;3.03;;;;;;;;;;5054546;28;20112;-85
2023/12/26 09:19:30;;;;;;;21.80;3.83;;;;;;;;;;5036667;28;20449;-86
2023/12/26 09:22:15;;;;;;;20.20;2.55;;;;;;;;;;5070951;28;20447;-85
2023/12/26 09:25:00;;;;;;;19.70;3.45;;;;;;;;;;5066904;28;20098;-86
2023/12/26 09:27:45;;;;;;;16.17;2.60;;;;;;;;;;5041620;28;20094;-85
2023/12/26 09:30:29;;;;;;;19.42;2.92;;;;;;;;;;5066838;28;20040;-88
2023/12/26 09:33:14;;;;;;;12.95;3.33;;;;;;;;;;5069410;28;20059;-87
2023/12/26 09:35:59;;;;;;;16.27;2.80;;;;;;;;;;5049174;28;20412;-85
2023/12/26 09:38:43;;;;;;;11.68;2.47;;;;;;;;;;5026159;28;20039;-84
2023/12/26 09:41:28;;;;;;;14.15;2.55;;;;;;;;;;5045202;28;20035;-87
2023/12/26 09:44:12;;;;;;;17.15;2.92;;;;;;;;;;5052286;28;20534;-85
2023/12/26 09:46:58;;;;;;;13.00;3.58;;;;;;;;;;5042044;28;20393;-86
2023/12/26 09:49:45;;;;;;;14.05;2.78;;;;;;;;;;5063519;28;20174;-87
2023/12/26 09:52:35;;;;;;;11.38;2.13;;;;;;;;;;5058273;28;20036;-88
2023/12/26 09:55:23;;;;;;;18.20;3.28;;;;;;;;;;5046252;28;20035;-86
2023/12/26 09:58:07;;;;;;;16.52;2.78;;;;;;;;;;5050594;28;20039;-91
2023/12/26 10:00:52;;;;;;;12.70;2.90;;;;;;;;;;5052844;28;20071;-85
2023/12/26 10:03:38;;;;;;;13.82;2.42;;;;;;;;;;5052028;28;20040;-88
2023/12/26 10:06:22;;;;;;;15.23;3.10;;;;;;;;;;5064978;28;20056;-83
2023/12/26 10:09:07;;;;;;;12.40;2.83;;;;;;;;;;5073218;28;20055;-87
2023/12/26 10:11:53;;;;;;;16.00;2.80;;;;;;;;;;5034054;28;20784;-83
2023/12/26 10:14:37;;;;;;;15.98;3.03;;;;;;;;;;5067275;28;20048;-87
2023/12/26 10:17:22;;;;;;;12.48;2.55;;;;;;;;;;5073632;28;20060;-87
2023/12/26 10:20:07;;;;;;;21.08;3.55;;;;;;;;;;5044836;28;20043;-87
2023/12/26 10:22:52;;;;;;;18.63;3.05;;;;;;;;;;5058888;28;20116;-87
2023/12/26 10:25:36;;;;;;;20.88;4.40;;;;;;;;;;5044396;28;20055;-87
2023/12/26 10:28:21;;;;;;;17.17;2.92;;;;;;;;;;5059007;28;20047;-87
2023/12/26 10:31:17;;;;;;;16.35;3.17;;;;;;;;;;5052069;28;20397;-87
2023/12/26 10:34:16;;;;;;;19.60;3.50;;;;;;;;;;5040268;28;20106;-87
2023/12/26 10:37:00;;;;;;;19.50;3.33;;;;;;;;;;5043734;28;20079;-88
2023/12/26 10:39:45;;;;;;;22.35;3.03;;;;;;;;;;5044356;28;20515;-87
2023/12/26 10:42:30;;;;;;;13.10;3.08;;;;;;;;;;5058958;28;20071;-87
2023/12/26 10:45:14;;;;;;;20.38;3.65;;;;;;;;;;5059105;28;20066;-87
2023/12/26 10:47:59;;;;;;;17.85;3.08;;;;;;;;;;5058050;28;20036;-87
2023/12/26 10:50:44;;;;;;;14.63;2.35;;;;;;;;;;5058237;28;20071;-87
2023/12/26 10:53:36;;;;;;;17.48;2.38;;;;;;;;;;5058745;28;20085;-88
2023/12/26 10:56:22;;;;;;;19.98;2.75;;;;;;;;;;5073610;28;20043;-88
2023/12/26 10:59:08;;;;;;;19.70;3.00;;;;;;;;;;5072981;28;20068;-88
2023/12/26 13:54:21;;;;;;;7.72;1.33;;;;;;;;;;5084337;28;20059;-87
2023/12/26 13:57:25;;;;;;;9.52;1.45;;;;;;;;;;5075460;28;20043;-88
2023/12/26 14:00:09;;;;;;;;;;;;;;;;;;5066544;28;20039;-87
2023/12/26 14:03:13;;;;;;;11.95;1.83;;;;;;;;;;5075882;28;19970;-87
2023/12/26 14:06:17;;;;;;;4.82;1.20;;;;;;;;;;5075304;28;20086;-88
2023/12/26 14:09:20;;;;;;;9.02;2.60;;;;;;;;;;5090480;28;20070;-87
2023/12/26 14:12:24;;;;;;;6.50;0.90;;;;;;;;;;5061998;28;20039;-87
2023/12/26 14:15:27;;;;;;;4.75;0.88;;;;;;;;;;5074941;28;20118;-88
2023/12/26 14:18:31;;;;;;;5.85;1.25;;;;;;;;;;5090669;28;20084;-87
2023/12/26 14:21:35;;;;;;;9.23;1.27;;;;;;;;;;5081689;28;20059;-87
2023/12/26 14:24:39;;;;;;;5.22;1.05;;;;;;;;;;5068805;28;20801;-86
2023/12/26 14:27:42;;;;;;;3.13;0.90;;;;;;;;;;5043569;28;20409;-87
2023/12/26 14:30:46;;;;;;;5.93;1.17;;;;;;;;;;5069525;28;20032;-87
2023/12/26 14:33:49;;;;;;;9.30;1.13;;;;;;;;;;5056530;28;20051;-87
2023/12/26 14:36:53;;;;;;;7.57;1.17;;;;;;;;;;5054983;28;20071;-86
2023/12/26 14:39:56;;;;;;;4.43;0.80;;;;;;;;;;5058715;28;20067;-86
2023/12/26 14:43:00;;;;;;;8.55;1.23;;;;;;;;;;5058531;28;20558;-88
2023/12/26 14:46:04;;;;;;;14.20;1.45;;;;;;;;;;5074120;28;20450;-86
2023/12/26 14:49:07;;;;;;;9.82;1.35;;;;;;;;;;5050100;28;20123;-86
2023/12/26 14:52:11;;;;;;;17.05;1.88;;;;;;;;;;5063424;28;20043;-86
2023/12/26 14:55:15;;;;;;;12.00;1.67;;;;;;;;;;5058645;28;20048;-86
2023/12/26 14:58:18;;;;;;;6.22;1.08;;;;;;;;;;5058236;28;20130;-87
2023/12/26 15:01:22;;;;;;;10.93;1.10;;;;;;;;;;5058335;28;20086;-87
2023/12/26 15:04:07;;;;;;;7.05;1.10;;;;;;;;;;5073939;28;20744;-87
2023/12/26 15:06:51;;;;;;;5.97;1.33;;;;;;;;;;5058158;28;20043;-87
2023/12/26 15:09:36;;;;;;;9.73;1.48;;;;;;;;;;5062346;28;20102;-86
2023/12/26 15:12:21;;;;;;;5.97;1.20;;;;;;;;;;5072434;28;20119;-86
2023/12/26 15:15:06;;;;;;;7.97;1.33;;;;;;;;;;5043969;28;20039;-86
2023/12/26 15:17:51;;;;;;;11.90;1.60;;;;;;;;;;5038130;28;20048;-86
2023/12/26 15:20:36;;;;;;;8.70;1.25;;;;;;;;;;5072058;28;20075;-86
2023/12/26 15:23:21;;;;;;;7.65;1.95;;;;;;;;;;5045357;28;20040;-87
2023/12/26 15:26:12;;;;;;;5.32;1.50;;;;;;;;;;5044215;28;20385;-86
2023/12/26 15:28:57;;;;;;;6.28;2.08;;;;;;;;;;5032990;28;20052;-86
2023/12/26 15:31:42;;;;;;;5.70;1.58;;;;;;;;;;5057150;28;20071;-86
2023/12/26 15:34:27;;;;;;;4.95;1.10;;;;;;;;;;5072254;28;20040;-87
2023/12/26 15:37:11;;;;;;;7.80;1.98;;;;;;;;;;5042912;28;20142;-86
2023/12/26 15:39:56;;;;;;;5.65;1.17;;;;;;;;;;5072862;28;20036;-87
2023/12/26 15:42:42;;;;;;;6.22;1.10;;;;;;;;;;5057366;28;20743;-88
2023/12/26 15:45:26;;;;;;;5.85;1.40;;;;;;;;;;5057758;28;20095;-86
2023/12/26 15:48:10;;;;;;;8.80;1.25;;;;;;;;;;5043797;28;20428;-87
2023/12/26 15:50:55;;;;;;;7.38;1.45;;;;;;;;;;5057223;28;20503;-87
2023/12/26 15:53:44;;;;;;;5.47;1.30;;;;;;;;;;5039395;28;20048;-88
2023/12/26 15:56:28;;;;;;;6.30;1.30;;;;;;;;;;5058895;28;20046;-87
2023/12/26 15:59:13;;;;;;;7.70;1.48;;;;;;;;;;5055241;28;20047;-87
2023/12/26 16:01:58;;;;;;;6.43;1.17;;;;;;;;;;5056069;28;20111;-85
2023/12/26 16:04:42;;;;;;;8.40;2.00;;;;;;;;;;5044724;28;20117;-86
2023/12/26 16:07:28;;;;;;;6.68;1.17;;;;;;;;;;5066120;28;20090;-87
2023/12/26 16:10:13;;;;;;;4.85;1.10;;;;;;;;;;5059114;28;20488;-89
2023/12/26 16:12:58;;;;;;;8.45;1.50;;;;;;;;;;5055338;28;20039;-87
2023/12/26 16:15:43;;;;;;;7.45;1.90;;;;;;;;;;5034193;28;20047;-87
2023/12/26 16:18:49;;;;;;;9.07;1.38;;;;;;;;;;5055346;28;20086;-87
2023/12/26 16:21:34;;;;;;;5.40;1.08;;;;;;;;;;5053667;28;20095;-88
2023/12/26 16:24:18;;;;;;;6.10;1.77;;;;;;;;;;5045794;28;20149;-88
2023/12/26 16:27:03;;;;;;;10.05;1.50;;;;;;;;;;5088395;28;20039;-89
2023/12/26 16:29:48;;;;;;;11.18;1.73;;;;;;;;;;5088540;28;20071;-86
2023/12/26 16:32:33;;;;;;;9.25;2.00;;;;;;;;;;5054933;28;20047;-90
2023/12/26 16:35:18;;;;;;;7.20;1.33;;;;;;;;;;5074927;28;20542;-89
2023/12/26 16:38:03;;;;;;;12.57;1.75;;;;;;;;;;5063259;28;20075;-88
2023/12/26 16:40:48;;;;;;;10.27;1.70;;;;;;;;;;5054163;28;20723;-89
2023/12/26 16:43:46;;;;;;;11.38;1.70;;;;;;;;;;5067825;28;20043;-87
2023/12/26 16:46:35;;;;;;;7.03;1.60;;;;;;;;;;5089405;28;20035;-87
2023/12/26 16:49:37;;;;;;;9.18;1.77;;;;;;;;;;5075345;28;20503;-86
2023/12/26 16:52:22;;;;;;;10.68;2.40;;;;;;;;;;5052813;28;20071;-86
2023/12/26 16:55:10;;;;;;;12.18;1.58;;;;;;;;;;5091762;28;20089;-87
2023/12/26 16:58:22;;;;;;;9.77;2.05;;;;;;;;;;5061241;28;20126;-87
2023/12/26 17:04:33;;;;;;;13.80;2.40;;;;;;;;;;5081219;28;20127;-88
2023/12/26 17:07:27;;;;;;;11.90;2.20;;;;;;;;;;5045678;28;20809;-87
2023/12/26 17:13:39;;;;;;;16.80;2.47;;;;;;;;;;5078813;28;20523;-86
2023/12/26 17:20:08;;;;;;;14.23;2.30;;;;;;;;;;5085573;28;20040;-86
2023/12/26 17:23:19;;;;;;;10.75;2.65;;;;;;;;;;5073211;28;20686;-86
2023/12/26 17:29:26;;;;;;;13.18;2.22;;;;;;;;;;5084030;28;20499;-87
2023/12/26 17:32:11;;;;;;;12.15;2.67;;;;;;;;;;5086916;28;20028;-87
2023/12/26 17:34:57;;;;;;;11.93;3.65;;;;;;;;;;5060988;28;20079;-86
2023/12/26 17:37:43;;;;;;;12.93;2.78;;;;;;;;;;5090938;28;20046;-85
2023/12/26 17:40:27;;;;;;;11.88;2.60;;;;;;;;;;5061893;28;20039;-86
2023/12/26 17:43:32;;;;;;;11.32;2.60;;;;;;;;;;5060982;28;20082;-83
2023/12/26 17:46:18;;;;;;;13.63;2.25;;;;;;;;;;5090674;28;20042;-84
2023/12/26 17:49:05;;;;;;;9.85;2.35;;;;;;;;;;5075607;28;20043;-83
2023/12/26 17:51:58;;;;;;;17.20;2.97;;;;;;;;;;5079765;28;20067;-83
2023/12/26 17:54:42;;;;;;;15.82;3.80;;;;;;;;;;5074827;28;20130;-85
2023/12/26 17:57:27;;;;;;;10.65;2.35;;;;;;;;;;5075656;28;20450;-85
2023/12/26 18:00:12;;;;;;;13.60;2.67;;;;;;;;;;5061683;28;20086;-85
2023/12/26 18:03:05;;;;;;;12.40;2.30;;;;;;;;;;5089352;28;20158;-86
2023/12/26 18:05:50;;;;;;;11.27;2.65;;;;;;;;;;5061668;28;20075;-85
2023/12/26 18:08:44;;;;;;;13.38;1.75;;;;;;;;;;5091124;28;20089;-85
2023/12/26 18:11:33;;;;;;;14.63;2.15;;;;;;;;;;5064795;28;20051;-85
2023/12/26 18:14:36;;;;;;;11.18;2.20;;;;;;;;;;5082494;28;20035;-86
2023/12/26 18:17:45;;;;;;;10.95;2.65;;;;;;;;;;5073312;28;20515;-84
2023/12/26 18:21:31;;;;;;;12.45;2.70;;;;;;;;;;5082508;28;20491;-84
2023/12/26 18:24:28;;;;;;;12.25;3.00;;;;;;;;;;5082949;28;20566;-84
2023/12/26 18:27:22;;;;;;;12.75;2.72;;;;;;;;;;5072440;28;20055;-84
2023/12/26 18:30:36;;;;;;;22.60;3.58;;;;;;;;;;5058240;28;20090;-85
2023/12/26 18:33:21;;;;;;;19.80;2.97;;;;;;;;;;5057717;28;20044;-84
2023/12/26 18:36:13;;;;;;;13.85;2.53;;;;;;;;;;5071184;28;20125;-84
2023/12/26 18:39:09;;;;;;;19.70;2.83;;;;;;;;;;5060886;28;20566;-86
2023/12/26 18:41:58;;;;;;;18.58;3.33;;;;;;;;;;5060384;28;20044;-85
2023/12/26 18:45:03;;;;;;;12.93;3.05;;;;;;;;;;5058026;28;20534;-85
2023/12/26 18:48:12;;;;;;;9.40;2.97;;;;;;;;;;5072893;28;20082;-88
2023/12/26 18:50:57;;;;;;;9.57;2.78;;;;;;;;;;5011320;28;20209;-87
2023/12/26 18:53:42;;;;;;;21.85;6.90;;;;;;;;;;5044768;28;20048;-84
2023/12/26 18:56:47;;;;;;;11.00;2.70;;;;;;;;;;5059213;28;20044;-85
2023/12/26 18:59:34;;;;;;;13.73;2.60;;;;;;;;;;5051954;28;20047;-86
2023/12/26 19:02:38;;;;;;;9.10;2.45;;;;;;;;;;5067116;28;20035;-84
2023/12/26 19:05:26;;;;;;;13.35;2.47;;;;;;;;;;5068026;28;20055;-84
2023/12/26 19:08:12;;;;;;;15.32;2.25;;;;;;;;;;5057728;28;20036;-84
2023/12/26 19:11:19;;;;;;;10.90;2.00;;;;;;;;;;5073606;28;20466;-85
2023/12/26 19:14:27;;;;;;;10.00;2.83;;;;;;;;;;5039463;28;20095;-85
2023/12/26 19:17:21;;;;;;;12.63;2.47;;;;;;;;;;5050189;28;20810;-85
2023/12/26 19:20:22;;;;;;;19.15;3.22;;;;;;;;;;5067583;28;20039;-86
2023/12/26 19:23:09;;;;;;;11.45;2.47;;;;;;;;;;5066221;28;20063;-86
2023/12/26 19:26:02;;;;;;;15.18;3.03;;;;;;;;;;5071798;28;20047;-86
2023/12/26 19:28:47;;;;;;;9.02;2.25;;;;;;;;;;5077904;28;20039;-85
2023/12/26 19:31:32;;;;;;;9.25;2.25;;;;;;;;;;5063925;28;20039;-84
2023/12/26 19:34:17;;;;;;;11.50;3.10;;;;;;;;;;5092923;28;20495;-85
2023/12/26 19:37:20;;;;;;;10.25;2.33;;;;;;;;;;5061942;28;20032;-84
2023/12/26 19:40:07;;;;;;;10.70;2.25;;;;;;;;;;5081713;28;20573;-84
2023/12/26 19:42:52;;;;;;;11.18;2.60;;;;;;;;;;5079315;28;20086;-85
2023/12/26 19:45:38;;;;;;;7.82;2.25;;;;;;;;;;5063813;28;20109;-83
2023/12/26 19:48:23;;;;;;;16.05;2.55;;;;;;;;;;5080306;28;20401;-84
2023/12/26 19:51:12;;;;;;;16.60;2.92;;;;;;;;;;5062353;28;21116;-85
2023/12/26 19:53:58;;;;;;;12.52;3.40;;;;;;;;;;5091942;28;20039;-86
2023/12/26 19:57:03;;;;;;;7.90;2.00;;;;;;;;;;5073492;28;20044;-84
2023/12/26 19:59:49;;;;;;;8.82;1.98;;;;;;;;;;5083257;28;20038;-84
2023/12/26 20:02:36;;;;;;;12.45;3.17;;;;;;;;;;5080339;28;20077;-84
2023/12/26 20:05:22;;;;;;;15.52;2.30;;;;;;;;;;5062887;28;20097;-85
2023/12/26 20:08:15;;;;;;;82.82;33.35;;;;;;;;;;5067764;28;20043;-84
2023/12/26 20:11:13;;;;;;;14.85;4.90;;;;;;;;;;5078712;28;20047;-85
2023/12/26 20:13:58;;;;;;;13.10;3.78;;;;;;;;;;5076027;28;20050;-86
2023/12/26 20:16:50;;;;;;;15.48;2.80;;;;;;;;;;5076553;28;20051;-84
2023/12/26 20:19:37;;;;;;;13.68;4.00;;;;;;;;;;5043654;28;20120;-81